Southwest Oregon Regional Airport
KOTH : now visible

Aeroporto :











RITROVATECI SU...

 
LOGIN :

Iscrizione | Disclaimer

   EN    FR    IT 

 









Sommario :    VFR   VFR Marginale   IFR   IFR Intensivo   IFR Molto Intensivo
Visibilità : 
Base nubi : 
>= 8 km
>= 3000ft
5 / 8 km
1000 / 3000 ft
1500m / 5 km
500 / 1000 ft
800 / 1500m
200 / 500 ft
< 800m
< 200 ft
Simboli :   Temporali  Nebbia  Neve Forte  Precipitazioni Forti  Vento > 20 kt






- Altitudine del aeroporto : 17 ft
- Codice IATA : OTH


KOTH - Southwest Oregon Regional

ULTIMO METAR :
  • 181956Z 13005KT 10SM OVC032 12/09 A3022 RMK AO2 SLP231 P0001 T01170089 $

METARs OBSOLETI :
  • 181856Z 13005KT 10SM OVC034 11/08 A3022 RMK AO2 SLP233 T01110078 $
  • 181756Z 13005KT 10SM BKN034 OVC044 10/08 A3020 RMK AO2 SLP226 60007 T01000078 10100 20067 51027 $

TAF KOTH
Valido dal 18 a 18 ore il 19 a 18 ore UTC


181745Z 1818/1918 16006KT P6SM -SHRA BKN035 OVC045 WS020/19045KT
FM182200 19010KT P6SM -SHRA OVC030



MetMap, La meteo Aeronautica in un colpo d'occhio ! - Copyright ORBIFLY Dicembre 2007 - Disclaimer

ORBIFLY MET'MAP TEAM :

Programmazione e sviluppo : Alexandra Zaïnal
Concezione : Baudouin d'Aumeries
Aiuto per la programmazione : Marc-Olivier Méhu
Supporto tecnico e logistico : Manuel Goepfert
Aiuto per la traduzione : Arnaldo La Scala

Contatto : metmap@orbifly.com




FONTI E CREDITI :

   NOAA       Earth
Advisory